sensor_id;sensor_type;location;lat;lon;timestamp;P1;durP1;ratioP1;P2;durP2;ratioP2
32535;SDS011;18974;50.838;4.636;2023-03-31T00:00:43;9.95;;;3.03;;
32535;SDS011;18974;50.838;4.636;2023-03-31T00:03:10;15.80;;;2.65;;
32535;SDS011;18974;50.838;4.636;2023-03-31T00:05:36;13.35;;;3.08;;
32535;SDS011;18974;50.838;4.636;2023-03-31T00:08:02;20.85;;;3.50;;
32535;SDS011;18974;50.838;4.636;2023-03-31T00:10:32;18.25;;;2.83;;
32535;SDS011;18974;50.838;4.636;2023-03-31T00:12:59;19.80;;;3.63;;
32535;SDS011;18974;50.838;4.636;2023-03-31T00:15:25;22.00;;;3.38;;
32535;SDS011;18974;50.838;4.636;2023-03-31T00:17:52;16.33;;;2.63;;
32535;SDS011;18974;50.838;4.636;2023-03-31T00:20:18;12.57;;;2.47;;
32535;SDS011;18974;50.838;4.636;2023-03-31T00:22:44;16.10;;;2.88;;
32535;SDS011;18974;50.838;4.636;2023-03-31T00:25:13;23.25;;;3.15;;
32535;SDS011;18974;50.838;4.636;2023-03-31T00:27:42;18.13;;;3.03;;
32535;SDS011;18974;50.838;4.636;2023-03-31T00:30:10;21.08;;;3.38;;
32535;SDS011;18974;50.838;4.636;2023-03-31T00:32:39;16.48;;;3.00;;
32535;SDS011;18974;50.838;4.636;2023-03-31T00:35:05;19.58;;;3.90;;
32535;SDS011;18974;50.838;4.636;2023-03-31T00:37:31;16.35;;;3.20;;
32535;SDS011;18974;50.838;4.636;2023-03-31T00:39:57;20.33;;;3.38;;
32535;SDS011;18974;50.838;4.636;2023-03-31T00:42:23;22.65;;;3.00;;
32535;SDS011;18974;50.838;4.636;2023-03-31T00:50:34;20.92;;;4.00;;
32535;SDS011;18974;50.838;4.636;2023-03-31T00:53:15;17.67;;;3.08;;
32535;SDS011;18974;50.838;4.636;2023-03-31T00:55:53;22.98;;;4.53;;
32535;SDS011;18974;50.838;4.636;2023-03-31T00:58:21;18.38;;;2.45;;
32535;SDS011;18974;50.838;4.636;2023-03-31T01:00:52;13.40;;;2.80;;
32535;SDS011;18974;50.838;4.636;2023-03-31T01:03:21;18.77;;;2.80;;
32535;SDS011;18974;50.838;4.636;2023-03-31T01:05:49;16.35;;;2.40;;
32535;SDS011;18974;50.838;4.636;2023-03-31T01:08:18;17.95;;;2.28;;
32535;SDS011;18974;50.838;4.636;2023-03-31T01:10:49;24.08;;;3.40;;
32535;SDS011;18974;50.838;4.636;2023-03-31T01:13:20;18.00;;;2.85;;
32535;SDS011;18974;50.838;4.636;2023-03-31T01:15:46;21.60;;;3.05;;
32535;SDS011;18974;50.838;4.636;2023-03-31T01:18:12;21.10;;;3.20;;
32535;SDS011;18974;50.838;4.636;2023-03-31T01:23:54;19.98;;;2.67;;
32535;SDS011;18974;50.838;4.636;2023-03-31T01:32:34;19.65;;;2.88;;
32535;SDS011;18974;50.838;4.636;2023-03-31T01:46:40;16.63;;;2.88;;
32535;SDS011;18974;50.838;4.636;2023-03-31T01:49:29;19.73;;;2.72;;
32535;SDS011;18974;50.838;4.636;2023-03-31T01:52:02;16.42;;;2.42;;
32535;SDS011;18974;50.838;4.636;2023-03-31T01:54:48;19.10;;;2.90;;
32535;SDS011;18974;50.838;4.636;2023-03-31T02:00:17;14.98;;;2.50;;
32535;SDS011;18974;50.838;4.636;2023-03-31T02:05:24;19.13;;;2.72;;
32535;SDS011;18974;50.838;4.636;2023-03-31T02:08:09;12.77;;;1.98;;
32535;SDS011;18974;50.838;4.636;2023-03-31T02:10:39;15.52;;;2.85;;
32535;SDS011;18974;50.838;4.636;2023-03-31T02:13:08;15.90;;;3.00;;
32535;SDS011;18974;50.838;4.636;2023-03-31T02:15:37;15.52;;;3.17;;
32535;SDS011;18974;50.838;4.636;2023-03-31T02:18:06;15.60;;;2.58;;
32535;SDS011;18974;50.838;4.636;2023-03-31T02:20:37;11.82;;;2.25;;
32535;SDS011;18974;50.838;4.636;2023-03-31T02:23:09;19.27;;;2.45;;
32535;SDS011;18974;50.838;4.636;2023-03-31T02:25:38;11.88;;;2.63;;
32535;SDS011;18974;50.838;4.636;2023-03-31T02:28:11;10.05;;;1.80;;
32535;SDS011;18974;50.838;4.636;2023-03-31T02:30:59;14.13;;;2.10;;
32535;SDS011;18974;50.838;4.636;2023-03-31T02:33:31;9.23;;;1.70;;
32535;SDS011;18974;50.838;4.636;2023-03-31T02:35:57;13.73;;;2.30;;
32535;SDS011;18974;50.838;4.636;2023-03-31T02:38:23;15.75;;;2.28;;
32535;SDS011;18974;50.838;4.636;2023-03-31T02:40:50;14.00;;;2.38;;
32535;SDS011;18974;50.838;4.636;2023-03-31T02:43:15;10.63;;;2.42;;
32535;SDS011;18974;50.838;4.636;2023-03-31T02:45:48;7.80;;;1.48;;
32535;SDS011;18974;50.838;4.636;2023-03-31T03:15:24;12.90;;;1.88;;
32535;SDS011;18974;50.838;4.636;2023-03-31T03:17:54;17.58;;;2.33;;
32535;SDS011;18974;50.838;4.636;2023-03-31T03:20:21;13.80;;;2.13;;
32535;SDS011;18974;50.838;4.636;2023-03-31T03:22:46;9.95;;;1.63;;
32535;SDS011;18974;50.838;4.636;2023-03-31T03:25:13;7.75;;;1.42;;
32535;SDS011;18974;50.838;4.636;2023-03-31T03:27:41;10.27;;;1.45;;
32535;SDS011;18974;50.838;4.636;2023-03-31T03:30:07;5.68;;;1.60;;
32535;SDS011;18974;50.838;4.636;2023-03-31T03:32:35;8.88;;;1.50;;
32535;SDS011;18974;50.838;4.636;2023-03-31T03:35:02;8.25;;;1.75;;
32535;SDS011;18974;50.838;4.636;2023-03-31T03:37:29;14.10;;;1.67;;
32535;SDS011;18974;50.838;4.636;2023-03-31T03:39:55;10.82;;;1.70;;
32535;SDS011;18974;50.838;4.636;2023-03-31T03:42:20;8.10;;;1.90;;
32535;SDS011;18974;50.838;4.636;2023-03-31T03:44:46;17.88;;;3.10;;
32535;SDS011;18974;50.838;4.636;2023-03-31T03:47:12;9.95;;;1.50;;
32535;SDS011;18974;50.838;4.636;2023-03-31T03:49:38;12.88;;;2.45;;
32535;SDS011;18974;50.838;4.636;2023-03-31T03:52:04;14.40;;;2.70;;
32535;SDS011;18974;50.838;4.636;2023-03-31T03:54:30;11.85;;;1.95;;
32535;SDS011;18974;50.838;4.636;2023-03-31T03:56:56;12.52;;;1.70;;
32535;SDS011;18974;50.838;4.636;2023-03-31T03:59:21;12.07;;;2.03;;
32535;SDS011;18974;50.838;4.636;2023-03-31T04:01:47;14.30;;;1.90;;
32535;SDS011;18974;50.838;4.636;2023-03-31T04:04:13;11.32;;;1.50;;
32535;SDS011;18974;50.838;4.636;2023-03-31T04:06:39;15.43;;;2.75;;
32535;SDS011;18974;50.838;4.636;2023-03-31T04:09:05;10.45;;;2.38;;
32535;SDS011;18974;50.838;4.636;2023-03-31T04:11:30;17.10;;;2.53;;
32535;SDS011;18974;50.838;4.636;2023-03-31T04:13:57;16.52;;;2.78;;
32535;SDS011;18974;50.838;4.636;2023-03-31T04:16:22;13.82;;;2.08;;
32535;SDS011;18974;50.838;4.636;2023-03-31T04:18:49;13.55;;;2.25;;
32535;SDS011;18974;50.838;4.636;2023-03-31T04:21:21;13.65;;;1.83;;
32535;SDS011;18974;50.838;4.636;2023-03-31T04:23:48;11.23;;;1.77;;
32535;SDS011;18974;50.838;4.636;2023-03-31T04:26:23;15.15;;;2.03;;
32535;SDS011;18974;50.838;4.636;2023-03-31T04:28:58;14.13;;;2.20;;
32535;SDS011;18974;50.838;4.636;2023-03-31T04:31:24;14.65;;;2.45;;
32535;SDS011;18974;50.838;4.636;2023-03-31T04:33:51;18.10;;;2.33;;
32535;SDS011;18974;50.838;4.636;2023-03-31T04:36:17;13.52;;;3.13;;
32535;SDS011;18974;50.838;4.636;2023-03-31T04:38:44;19.02;;;2.72;;
32535;SDS011;18974;50.838;4.636;2023-03-31T04:41:14;12.30;;;2.00;;
32535;SDS011;18974;50.838;4.636;2023-03-31T04:43:40;19.77;;;3.38;;
32535;SDS011;18974;50.838;4.636;2023-03-31T04:46:06;13.93;;;2.28;;
32535;SDS011;18974;50.838;4.636;2023-03-31T04:48:32;15.43;;;2.00;;
32535;SDS011;18974;50.838;4.636;2023-03-31T04:50:57;22.08;;;2.90;;
32535;SDS011;18974;50.838;4.636;2023-03-31T04:53:23;16.73;;;2.33;;
32535;SDS011;18974;50.838;4.636;2023-03-31T04:55:50;17.08;;;2.30;;
32535;SDS011;18974;50.838;4.636;2023-03-31T04:58:15;19.13;;;2.47;;
32535;SDS011;18974;50.838;4.636;2023-03-31T05:00:41;15.25;;;1.83;;
32535;SDS011;18974;50.838;4.636;2023-03-31T05:03:07;11.98;;;2.00;;
32535;SDS011;18974;50.838;4.636;2023-03-31T05:05:33;18.48;;;2.63;;
32535;SDS011;18974;50.838;4.636;2023-03-31T05:07:59;10.30;;;2.50;;
32535;SDS011;18974;50.838;4.636;2023-03-31T05:10:25;17.52;;;2.65;;
32535;SDS011;18974;50.838;4.636;2023-03-31T05:12:51;19.10;;;2.75;;
32535;SDS011;18974;50.838;4.636;2023-03-31T05:15:17;16.67;;;2.55;;
32535;SDS011;18974;50.838;4.636;2023-03-31T05:17:43;15.95;;;2.40;;
32535;SDS011;18974;50.838;4.636;2023-03-31T05:20:09;18.67;;;2.17;;
32535;SDS011;18974;50.838;4.636;2023-03-31T05:22:36;25.05;;;2.90;;
32535;SDS011;18974;50.838;4.636;2023-03-31T05:25:03;17.77;;;2.35;;
32535;SDS011;18974;50.838;4.636;2023-03-31T05:27:31;11.77;;;2.03;;
32535;SDS011;18974;50.838;4.636;2023-03-31T05:29:57;14.30;;;2.38;;
32535;SDS011;18974;50.838;4.636;2023-03-31T05:32:22;25.80;;;2.65;;
32535;SDS011;18974;50.838;4.636;2023-03-31T05:34:49;7.55;;;2.22;;
32535;SDS011;18974;50.838;4.636;2023-03-31T05:37:17;15.18;;;3.10;;
32535;SDS011;18974;50.838;4.636;2023-03-31T05:39:44;10.52;;;2.03;;
32535;SDS011;18974;50.838;4.636;2023-03-31T05:42:10;19.67;;;2.45;;
32535;SDS011;18974;50.838;4.636;2023-03-31T05:44:36;20.30;;;3.00;;
32535;SDS011;18974;50.838;4.636;2023-03-31T05:47:01;8.02;;;2.38;;
32535;SDS011;18974;50.838;4.636;2023-03-31T05:49:27;11.43;;;2.20;;
32535;SDS011;18974;50.838;4.636;2023-03-31T05:51:53;18.83;;;3.33;;
32535;SDS011;18974;50.838;4.636;2023-03-31T05:54:20;17.70;;;2.72;;
32535;SDS011;18974;50.838;4.636;2023-03-31T05:56:46;21.73;;;2.67;;
32535;SDS011;18974;50.838;4.636;2023-03-31T05:59:12;19.60;;;2.60;;
32535;SDS011;18974;50.838;4.636;2023-03-31T06:01:38;15.55;;;2.38;;
32535;SDS011;18974;50.838;4.636;2023-03-31T06:04:04;20.00;;;2.60;;
32535;SDS011;18974;50.838;4.636;2023-03-31T06:06:30;18.50;;;3.33;;
32535;SDS011;18974;50.838;4.636;2023-03-31T06:08:57;18.75;;;3.17;;
32535;SDS011;18974;50.838;4.636;2023-03-31T06:11:23;15.90;;;3.38;;
32535;SDS011;18974;50.838;4.636;2023-03-31T06:13:48;21.05;;;3.03;;
32535;SDS011;18974;50.838;4.636;2023-03-31T06:16:15;22.65;;;3.58;;
32535;SDS011;18974;50.838;4.636;2023-03-31T06:18:41;17.75;;;2.78;;
32535;SDS011;18974;50.838;4.636;2023-03-31T06:21:09;17.45;;;3.53;;
32535;SDS011;18974;50.838;4.636;2023-03-31T06:23:38;21.38;;;2.72;;
32535;SDS011;18974;50.838;4.636;2023-03-31T06:26:04;18.35;;;3.17;;
32535;SDS011;18974;50.838;4.636;2023-03-31T06:28:32;23.95;;;2.97;;
32535;SDS011;18974;50.838;4.636;2023-03-31T06:30:59;19.73;;;2.97;;
32535;SDS011;18974;50.838;4.636;2023-03-31T06:33:29;19.95;;;3.58;;
32535;SDS011;18974;50.838;4.636;2023-03-31T06:35:56;14.32;;;2.70;;
32535;SDS011;18974;50.838;4.636;2023-03-31T06:38:23;15.27;;;3.38;;
32535;SDS011;18974;50.838;4.636;2023-03-31T06:40:50;23.80;;;3.13;;
32535;SDS011;18974;50.838;4.636;2023-03-31T06:43:16;16.17;;;2.85;;
32535;SDS011;18974;50.838;4.636;2023-03-31T06:45:41;20.98;;;4.03;;
32535;SDS011;18974;50.838;4.636;2023-03-31T06:48:07;19.50;;;3.65;;
32535;SDS011;18974;50.838;4.636;2023-03-31T06:50:33;24.95;;;3.58;;
32535;SDS011;18974;50.838;4.636;2023-03-31T06:53:01;23.98;;;3.20;;
32535;SDS011;18974;50.838;4.636;2023-03-31T06:55:26;24.75;;;3.13;;
32535;SDS011;18974;50.838;4.636;2023-03-31T06:57:52;22.33;;;4.20;;
32535;SDS011;18974;50.838;4.636;2023-03-31T07:00:18;18.77;;;3.05;;
32535;SDS011;18974;50.838;4.636;2023-03-31T07:02:43;19.98;;;3.17;;
32535;SDS011;18974;50.838;4.636;2023-03-31T07:05:09;14.68;;;2.42;;
32535;SDS011;18974;50.838;4.636;2023-03-31T07:07:35;18.77;;;3.40;;
32535;SDS011;18974;50.838;4.636;2023-03-31T07:10:00;21.98;;;3.75;;
32535;SDS011;18974;50.838;4.636;2023-03-31T07:12:26;24.83;;;3.05;;
32535;SDS011;18974;50.838;4.636;2023-03-31T07:14:52;15.57;;;2.80;;
32535;SDS011;18974;50.838;4.636;2023-03-31T07:17:17;23.40;;;3.58;;
32535;SDS011;18974;50.838;4.636;2023-03-31T07:19:43;19.75;;;3.13;;
32535;SDS011;18974;50.838;4.636;2023-03-31T07:22:12;20.13;;;3.25;;
32535;SDS011;18974;50.838;4.636;2023-03-31T07:24:39;15.38;;;2.83;;
32535;SDS011;18974;50.838;4.636;2023-03-31T07:27:04;16.45;;;3.13;;
32535;SDS011;18974;50.838;4.636;2023-03-31T07:29:30;20.85;;;3.53;;
32535;SDS011;18974;50.838;4.636;2023-03-31T07:31:56;14.45;;;2.63;;
32535;SDS011;18974;50.838;4.636;2023-03-31T07:34:21;19.63;;;3.22;;
32535;SDS011;18974;50.838;4.636;2023-03-31T07:36:47;18.25;;;3.70;;
32535;SDS011;18974;50.838;4.636;2023-03-31T07:39:13;19.77;;;3.55;;
32535;SDS011;18974;50.838;4.636;2023-03-31T07:41:38;18.23;;;2.72;;
32535;SDS011;18974;50.838;4.636;2023-03-31T07:44:04;18.92;;;3.10;;
32535;SDS011;18974;50.838;4.636;2023-03-31T07:46:30;15.20;;;3.53;;
32535;SDS011;18974;50.838;4.636;2023-03-31T07:48:56;23.55;;;4.32;;
32535;SDS011;18974;50.838;4.636;2023-03-31T07:51:23;20.17;;;3.40;;
32535;SDS011;18974;50.838;4.636;2023-03-31T07:53:50;18.98;;;3.60;;
32535;SDS011;18974;50.838;4.636;2023-03-31T07:56:21;21.42;;;3.45;;
32535;SDS011;18974;50.838;4.636;2023-03-31T07:58:48;15.80;;;3.17;;
32535;SDS011;18974;50.838;4.636;2023-03-31T08:01:16;21.52;;;3.55;;
32535;SDS011;18974;50.838;4.636;2023-03-31T08:03:43;24.60;;;3.80;;
32535;SDS011;18974;50.838;4.636;2023-03-31T08:06:19;27.52;;;4.28;;
32535;SDS011;18974;50.838;4.636;2023-03-31T08:08:47;20.30;;;3.40;;
32535;SDS011;18974;50.838;4.636;2023-03-31T08:11:13;20.13;;;3.42;;
32535;SDS011;18974;50.838;4.636;2023-03-31T08:13:39;17.65;;;3.58;;
32535;SDS011;18974;50.838;4.636;2023-03-31T08:16:04;19.48;;;3.95;;
32535;SDS011;18974;50.838;4.636;2023-03-31T08:18:30;19.52;;;3.50;;
32535;SDS011;18974;50.838;4.636;2023-03-31T08:20:56;28.67;;;4.97;;
32535;SDS011;18974;50.838;4.636;2023-03-31T08:23:21;21.05;;;3.80;;
32535;SDS011;18974;50.838;4.636;2023-03-31T08:25:47;23.45;;;4.20;;
32535;SDS011;18974;50.838;4.636;2023-03-31T08:28:12;19.20;;;4.07;;
32535;SDS011;18974;50.838;4.636;2023-03-31T08:30:39;18.80;;;3.58;;
32535;SDS011;18974;50.838;4.636;2023-03-31T08:33:05;21.77;;;3.38;;
32535;SDS011;18974;50.838;4.636;2023-03-31T08:35:37;17.33;;;3.25;;
32535;SDS011;18974;50.838;4.636;2023-03-31T08:38:02;21.67;;;3.45;;
32535;SDS011;18974;50.838;4.636;2023-03-31T08:40:28;14.70;;;2.88;;
32535;SDS011;18974;50.838;4.636;2023-03-31T08:43:16;21.65;;;4.10;;
32535;SDS011;18974;50.838;4.636;2023-03-31T08:45:56;17.35;;;2.97;;
32535;SDS011;18974;50.838;4.636;2023-03-31T08:48:28;13.77;;;3.05;;
32535;SDS011;18974;50.838;4.636;2023-03-31T08:51:05;11.77;;;2.30;;
32535;SDS011;18974;50.838;4.636;2023-03-31T08:53:38;14.88;;;2.35;;
32535;SDS011;18974;50.838;4.636;2023-03-31T08:56:16;14.02;;;3.20;;
32535;SDS011;18974;50.838;4.636;2023-03-31T08:58:49;17.23;;;2.83;;
32535;SDS011;18974;50.838;4.636;2023-03-31T09:04:03;20.52;;;2.80;;
32535;SDS011;18974;50.838;4.636;2023-03-31T09:12:34;13.10;;;2.72;;
32535;SDS011;18974;50.838;4.636;2023-03-31T09:15:10;19.25;;;2.97;;
32535;SDS011;18974;50.838;4.636;2023-03-31T09:17:46;20.65;;;3.85;;
32535;SDS011;18974;50.838;4.636;2023-03-31T09:20:17;13.60;;;3.30;;
32535;SDS011;18974;50.838;4.636;2023-03-31T09:22:46;20.85;;;3.30;;
32535;SDS011;18974;50.838;4.636;2023-03-31T09:27:44;18.02;;;3.22;;
32535;SDS011;18974;50.838;4.636;2023-03-31T09:30:23;26.13;;;3.38;;
32535;SDS011;18974;50.838;4.636;2023-03-31T09:33:13;18.77;;;3.20;;
32535;SDS011;18974;50.838;4.636;2023-03-31T09:35:58;23.85;;;3.75;;
32535;SDS011;18974;50.838;4.636;2023-03-31T09:38:32;24.73;;;4.28;;
32535;SDS011;18974;50.838;4.636;2023-03-31T09:40:59;19.02;;;3.28;;
32535;SDS011;18974;50.838;4.636;2023-03-31T09:43:30;17.25;;;3.45;;
32535;SDS011;18974;50.838;4.636;2023-03-31T09:46:00;18.40;;;3.25;;
32535;SDS011;18974;50.838;4.636;2023-03-31T09:48:28;23.40;;;3.20;;
32535;SDS011;18974;50.838;4.636;2023-03-31T09:53:31;18.38;;;4.85;;
32535;SDS011;18974;50.838;4.636;2023-03-31T09:56:03;26.83;;;4.10;;
32535;SDS011;18974;50.838;4.636;2023-03-31T09:58:36;23.70;;;3.92;;
32535;SDS011;18974;50.838;4.636;2023-03-31T10:01:05;23.60;;;4.60;;
32535;SDS011;18974;50.838;4.636;2023-03-31T10:03:40;21.00;;;4.03;;
32535;SDS011;18974;50.838;4.636;2023-03-31T10:06:10;25.27;;;5.38;;
32535;SDS011;18974;50.838;4.636;2023-03-31T10:08:50;20.08;;;4.10;;
32535;SDS011;18974;50.838;4.636;2023-03-31T10:11:23;25.67;;;4.53;;
32535;SDS011;18974;50.838;4.636;2023-03-31T10:14:01;31.13;;;4.35;;
32535;SDS011;18974;50.838;4.636;2023-03-31T10:16:43;26.35;;;4.22;;
32535;SDS011;18974;50.838;4.636;2023-03-31T10:19:21;22.00;;;3.60;;
32535;SDS011;18974;50.838;4.636;2023-03-31T10:22:00;20.85;;;3.65;;
32535;SDS011;18974;50.838;4.636;2023-03-31T10:24:35;25.65;;;4.13;;
32535;SDS011;18974;50.838;4.636;2023-03-31T10:27:13;24.20;;;4.32;;
32535;SDS011;18974;50.838;4.636;2023-03-31T10:29:52;23.75;;;4.35;;
32535;SDS011;18974;50.838;4.636;2023-03-31T10:32:27;28.08;;;3.67;;
32535;SDS011;18974;50.838;4.636;2023-03-31T10:35:02;24.00;;;3.78;;
32535;SDS011;18974;50.838;4.636;2023-03-31T10:37:48;23.45;;;4.03;;
32535;SDS011;18974;50.838;4.636;2023-03-31T10:40:24;23.02;;;3.65;;
32535;SDS011;18974;50.838;4.636;2023-03-31T10:45:49;17.88;;;2.67;;
32535;SDS011;18974;50.838;4.636;2023-03-31T10:48:27;16.48;;;3.83;;
32535;SDS011;18974;50.838;4.636;2023-03-31T10:53:53;23.17;;;3.55;;
32535;SDS011;18974;50.838;4.636;2023-03-31T11:09:33;21.45;;;3.50;;
32535;SDS011;18974;50.838;4.636;2023-03-31T11:22:30;19.17;;;4.00;;
32535;SDS011;18974;50.838;4.636;2023-03-31T11:30:15;20.95;;;3.00;;
32535;SDS011;18974;50.838;4.636;2023-03-31T11:38:14;19.17;;;3.17;;
32535;SDS011;18974;50.838;4.636;2023-03-31T11:41:07;16.45;;;3.00;;
32535;SDS011;18974;50.838;4.636;2023-03-31T11:46:22;13.75;;;2.63;;
32535;SDS011;18974;50.838;4.636;2023-03-31T11:48:58;15.73;;;2.55;;
32535;SDS011;18974;50.838;4.636;2023-03-31T11:56:50;10.32;;;2.75;;
32535;SDS011;18974;50.838;4.636;2023-03-31T11:59:17;16.70;;;3.55;;
32535;SDS011;18974;50.838;4.636;2023-03-31T12:04:30;14.18;;;2.63;;
32535;SDS011;18974;50.838;4.636;2023-03-31T12:07:02;10.32;;;2.22;;
32535;SDS011;18974;50.838;4.636;2023-03-31T12:09:40;10.85;;;2.13;;
32535;SDS011;18974;50.838;4.636;2023-03-31T12:12:41;13.30;;;1.90;;
32535;SDS011;18974;50.838;4.636;2023-03-31T12:20:39;14.15;;;2.75;;
32535;SDS011;18974;50.838;4.636;2023-03-31T12:23:12;18.25;;;3.08;;
32535;SDS011;18974;50.838;4.636;2023-03-31T12:26:05;9.93;;;2.25;;
32535;SDS011;18974;50.838;4.636;2023-03-31T12:28:47;17.90;;;2.50;;
32535;SDS011;18974;50.838;4.636;2023-03-31T12:31:19;14.88;;;2.92;;
32535;SDS011;18974;50.838;4.636;2023-03-31T12:34:03;15.07;;;2.40;;
32535;SDS011;18974;50.838;4.636;2023-03-31T12:36:40;12.55;;;2.78;;
32535;SDS011;18974;50.838;4.636;2023-03-31T12:42:28;10.57;;;1.92;;
32535;SDS011;18974;50.838;4.636;2023-03-31T12:45:46;8.98;;;1.45;;
32535;SDS011;18974;50.838;4.636;2023-03-31T12:59:37;8.98;;;2.10;;
32535;SDS011;18974;50.838;4.636;2023-03-31T13:04:39;11.80;;;2.03;;
32535;SDS011;18974;50.838;4.636;2023-03-31T13:09:50;7.85;;;2.53;;
32535;SDS011;18974;50.838;4.636;2023-03-31T13:12:21;13.18;;;2.15;;
32535;SDS011;18974;50.838;4.636;2023-03-31T13:14:50;12.25;;;2.47;;
32535;SDS011;18974;50.838;4.636;2023-03-31T13:17:22;9.15;;;1.55;;
32535;SDS011;18974;50.838;4.636;2023-03-31T13:19:53;9.30;;;1.85;;
32535;SDS011;18974;50.838;4.636;2023-03-31T13:22:40;6.45;;;1.13;;
32535;SDS011;18974;50.838;4.636;2023-03-31T13:30:46;7.10;;;1.65;;
32535;SDS011;18974;50.838;4.636;2023-03-31T13:41:27;10.45;;;1.67;;
32535;SDS011;18974;50.838;4.636;2023-03-31T13:44:25;8.40;;;1.10;;
32535;SDS011;18974;50.838;4.636;2023-03-31T14:07:21;7.05;;;1.58;;
32535;SDS011;18974;50.838;4.636;2023-03-31T14:10:24;5.05;;;1.13;;
32535;SDS011;18974;50.838;4.636;2023-03-31T14:13:08;4.35;;;0.80;;
32535;SDS011;18974;50.838;4.636;2023-03-31T14:15:37;2.63;;;0.98;;
32535;SDS011;18974;50.838;4.636;2023-03-31T14:18:24;1.98;;;0.63;;
32535;SDS011;18974;50.838;4.636;2023-03-31T14:24:07;5.25;;;1.08;;
32535;SDS011;18974;50.838;4.636;2023-03-31T14:26:46;2.78;;;0.50;;
32535;SDS011;18974;50.838;4.636;2023-03-31T14:29:30;2.25;;;0.63;;
32535;SDS011;18974;50.838;4.636;2023-03-31T14:35:34;2.55;;;0.50;;
32535;SDS011;18974;50.838;4.636;2023-03-31T14:38:28;3.58;;;0.73;;
32535;SDS011;18974;50.838;4.636;2023-03-31T14:40:54;0.95;;;0.55;;
32535;SDS011;18974;50.838;4.636;2023-03-31T14:43:25;2.05;;;0.50;;
32535;SDS011;18974;50.838;4.636;2023-03-31T14:46:05;1.45;;;0.32;;
32535;SDS011;18974;50.838;4.636;2023-03-31T14:48:33;4.00;;;0.73;;
32535;SDS011;18974;50.838;4.636;2023-03-31T14:51:12;2.05;;;0.40;;
32535;SDS011;18974;50.838;4.636;2023-03-31T14:53:40;0.88;;;0.32;;
32535;SDS011;18974;50.838;4.636;2023-03-31T14:56:19;4.45;;;0.52;;
32535;SDS011;18974;50.838;4.636;2023-03-31T14:58:51;4.00;;;0.60;;
32535;SDS011;18974;50.838;4.636;2023-03-31T15:01:18;2.70;;;0.50;;
32535;SDS011;18974;50.838;4.636;2023-03-31T15:03:50;1.10;;;0.57;;
32535;SDS011;18974;50.838;4.636;2023-03-31T15:06:17;1.08;;;0.47;;
32535;SDS011;18974;50.838;4.636;2023-03-31T15:08:43;1.55;;;0.63;;
32535;SDS011;18974;50.838;4.636;2023-03-31T15:11:13;4.07;;;0.60;;
32535;SDS011;18974;50.838;4.636;2023-03-31T15:13:48;3.53;;;0.80;;
32535;SDS011;18974;50.838;4.636;2023-03-31T15:18:52;1.17;;;0.40;;
32535;SDS011;18974;50.838;4.636;2023-03-31T15:21:22;3.67;;;0.50;;
32535;SDS011;18974;50.838;4.636;2023-03-31T15:23:50;2.65;;;0.60;;
32535;SDS011;18974;50.838;4.636;2023-03-31T15:26:17;1.63;;;0.60;;
32535;SDS011;18974;50.838;4.636;2023-03-31T15:28:54;1.13;;;0.60;;
32535;SDS011;18974;50.838;4.636;2023-03-31T15:31:27;2.42;;;0.63;;
32535;SDS011;18974;50.838;4.636;2023-03-31T15:33:54;3.78;;;0.70;;
32535;SDS011;18974;50.838;4.636;2023-03-31T15:36:20;3.72;;;0.55;;
32535;SDS011;18974;50.838;4.636;2023-03-31T15:38:46;4.25;;;0.50;;
32535;SDS011;18974;50.838;4.636;2023-03-31T15:41:21;4.00;;;0.80;;
32535;SDS011;18974;50.838;4.636;2023-03-31T15:43:49;2.78;;;0.90;;
32535;SDS011;18974;50.838;4.636;2023-03-31T15:49:20;1.85;;;0.68;;
32535;SDS011;18974;50.838;4.636;2023-03-31T15:51:47;2.75;;;0.80;;
32535;SDS011;18974;50.838;4.636;2023-03-31T15:54:29;5.85;;;1.33;;
32535;SDS011;18974;50.838;4.636;2023-03-31T15:57:04;3.97;;;0.80;;
32535;SDS011;18974;50.838;4.636;2023-03-31T15:59:50;6.07;;;1.17;;
32535;SDS011;18974;50.838;4.636;2023-03-31T16:02:27;2.50;;;0.93;;
32535;SDS011;18974;50.838;4.636;2023-03-31T16:05:13;3.42;;;0.75;;
32535;SDS011;18974;50.838;4.636;2023-03-31T16:10:30;8.00;;;1.70;;
32535;SDS011;18974;50.838;4.636;2023-03-31T16:13:06;10.82;;;1.38;;
32535;SDS011;18974;50.838;4.636;2023-03-31T16:15:44;5.32;;;1.00;;
32535;SDS011;18974;50.838;4.636;2023-03-31T16:18:17;7.57;;;1.20;;
32535;SDS011;18974;50.838;4.636;2023-03-31T16:20:56;9.18;;;1.15;;
32535;SDS011;18974;50.838;4.636;2023-03-31T16:23:25;5.50;;;1.10;;
32535;SDS011;18974;50.838;4.636;2023-03-31T16:25:52;6.70;;;1.40;;
32535;SDS011;18974;50.838;4.636;2023-03-31T16:28:20;7.53;;;1.15;;
32535;SDS011;18974;50.838;4.636;2023-03-31T16:30:49;6.25;;;1.42;;
32535;SDS011;18974;50.838;4.636;2023-03-31T16:33:15;3.88;;;0.90;;
32535;SDS011;18974;50.838;4.636;2023-03-31T16:35:47;3.92;;;1.08;;
32535;SDS011;18974;50.838;4.636;2023-03-31T16:38:15;5.70;;;1.27;;
32535;SDS011;18974;50.838;4.636;2023-03-31T16:40:42;4.60;;;0.82;;
32535;SDS011;18974;50.838;4.636;2023-03-31T16:43:13;5.72;;;1.35;;
32535;SDS011;18974;50.838;4.636;2023-03-31T16:45:44;9.43;;;2.05;;
32535;SDS011;18974;50.838;4.636;2023-03-31T16:48:15;7.05;;;1.35;;
32535;SDS011;18974;50.838;4.636;2023-03-31T16:50:46;8.15;;;1.48;;
32535;SDS011;18974;50.838;4.636;2023-03-31T16:53:18;8.20;;;1.27;;
32535;SDS011;18974;50.838;4.636;2023-03-31T16:55:46;7.85;;;1.85;;
32535;SDS011;18974;50.838;4.636;2023-03-31T16:58:12;5.30;;;1.15;;
32535;SDS011;18974;50.838;4.636;2023-03-31T17:00:39;2.75;;;0.98;;
32535;SDS011;18974;50.838;4.636;2023-03-31T17:03:06;5.35;;;1.45;;
32535;SDS011;18974;50.838;4.636;2023-03-31T17:05:40;8.10;;;1.52;;
32535;SDS011;18974;50.838;4.636;2023-03-31T17:08:08;4.10;;;1.02;;
32535;SDS011;18974;50.838;4.636;2023-03-31T17:10:35;8.55;;;1.20;;
32535;SDS011;18974;50.838;4.636;2023-03-31T17:13:04;8.23;;;1.30;;
32535;SDS011;18974;50.838;4.636;2023-03-31T17:15:31;7.32;;;1.10;;
32535;SDS011;18974;50.838;4.636;2023-03-31T17:18:00;10.90;;;1.35;;
32535;SDS011;18974;50.838;4.636;2023-03-31T17:20:27;3.15;;;1.10;;
32535;SDS011;18974;50.838;4.636;2023-03-31T17:22:54;7.40;;;1.45;;
32535;SDS011;18974;50.838;4.636;2023-03-31T17:25:20;6.07;;;1.13;;
32535;SDS011;18974;50.838;4.636;2023-03-31T17:27:46;9.57;;;1.77;;
32535;SDS011;18974;50.838;4.636;2023-03-31T17:30:12;6.22;;;1.20;;
32535;SDS011;18974;50.838;4.636;2023-03-31T17:32:37;10.38;;;2.80;;
32535;SDS011;18974;50.838;4.636;2023-03-31T17:35:04;8.68;;;1.45;;
32535;SDS011;18974;50.838;4.636;2023-03-31T17:37:31;6.88;;;1.33;;
32535;SDS011;18974;50.838;4.636;2023-03-31T17:39:57;10.57;;;1.85;;
32535;SDS011;18974;50.838;4.636;2023-03-31T17:42:23;13.85;;;2.22;;
32535;SDS011;18974;50.838;4.636;2023-03-31T17:44:49;7.80;;;1.67;;
32535;SDS011;18974;50.838;4.636;2023-03-31T17:47:16;9.32;;;2.13;;
32535;SDS011;18974;50.838;4.636;2023-03-31T17:49:43;16.33;;;1.60;;
32535;SDS011;18974;50.838;4.636;2023-03-31T17:52:08;11.68;;;1.92;;
32535;SDS011;18974;50.838;4.636;2023-03-31T17:54:34;12.35;;;1.55;;
32535;SDS011;18974;50.838;4.636;2023-03-31T17:57:00;10.25;;;1.63;;
32535;SDS011;18974;50.838;4.636;2023-03-31T17:59:27;8.55;;;1.80;;
32535;SDS011;18974;50.838;4.636;2023-03-31T18:01:52;19.02;;;2.65;;
32535;SDS011;18974;50.838;4.636;2023-03-31T18:04:19;14.25;;;1.95;;
32535;SDS011;18974;50.838;4.636;2023-03-31T18:06:44;12.20;;;2.08;;
32535;SDS011;18974;50.838;4.636;2023-03-31T18:09:12;13.50;;;1.90;;
32535;SDS011;18974;50.838;4.636;2023-03-31T18:11:39;10.25;;;1.75;;
32535;SDS011;18974;50.838;4.636;2023-03-31T18:14:04;13.70;;;2.08;;